Khanabad, Karshi Airport (UTSK)

NameKarshi Airport
CityKhanabad
CountryUzbekistan
ICAOUTSK
IATAKSQ
Altitude375 m
CoordinatesGoogle Map
Live Air TrafficLiveATC.net
METARUTSK 221900Z 23006KT CAVOK 11/09 Q1017 R16/CLRD70
2019-03-22 19:00:00 Wind: Southwest (230°) 3.09 m/s - Visibility: > 10000 m - Weather: CAVOK - Temperature: 11 °C - Dew point: 9 °C - Humidity: 87.6% - Pressure: 1017 hPa

Sorry, no flights used the airport in this database.